»·PEaware :: GAJ250 KPHX-KABQ

GAJ250 :: KPHX-KABQ

FLIGHT INFORMATION

Flight Status: Arrived
Operator: Unknown
More flights by this operator :: More flights under this callsign
Pilot: Anonymous 13363 (13363)
Aircraft: BEECH AIRCRAFT SUPER KING AIR COMMUTER
(BE20)
More flights by this aircraft type
Origin: KPHX Phoenix Sky Harbor Intl
United States
Destination: KABQ Albuquerque Intl Sunport
United States
More flights between these airports :: More routes between these airports
Route: LALUZ5 SJN LAVAN3
File this flight plan on PilotEdge
Remarks:
Altitude:
(Current/Filed)
27,000ft
Speed:
(Current/Filed)
331kts
Departed: 09-Feb-18 12:47 PM
Arrived: 09-Feb-18 01:58 PM
Distance/Time
Traveled:
284nm/1:11
Distance/Time
To Go:
Arrived

Flight Plot

Page will automatically refresh every two minutes.

Flight plan parsing failed; only flown route is shown


Map Options




Map Legend


Flown Route
Filed Route
Departure Airport
Arrival Airport
Navaid (VOR, NDB)
Fix

Horizontal Profiles

Position Reports

Time Latitude Longitude Heading Altitude Ground
Speed
09-Feb-18 12:45 33.425770 -112.019526 269 1112ft 0kts
09-Feb-18 12:46 33.425770 -112.019526 269 1112ft 0kts
09-Feb-18 12:47 33.425770 -112.019526 269 1112ft 0kts
09-Feb-18 12:48 33.425770 -112.019526 269 1112ft 0kts
09-Feb-18 12:49 33.425770 -112.019526 269 1112ft 0kts
09-Feb-18 12:50 33.426140 -112.019963 330 1112ft 12kts
09-Feb-18 12:51 33.427749 -112.019912 89 1112ft 8kts
09-Feb-18 12:52 33.427739 -112.012181 92 1112ft 23kts
09-Feb-18 12:53 33.427740 -112.006917 93 1113ft 23kts
09-Feb-18 12:54 33.428901 -112.020170 269 1148ft 147kts
09-Feb-18 12:55 33.432775 -112.073022 308 3465ft 175kts
09-Feb-18 12:56 33.469096 -112.112494 319 5846ft 183kts
09-Feb-18 12:57 33.508169 -112.151626 319 8336ft 188kts
09-Feb-18 12:58 33.556085 -112.171686 1 10510ft 201kts
09-Feb-18 12:59 33.611824 -112.168932 19 12555ft 208kts
09-Feb-18 13:00 33.653948 -112.120767 43 14628ft 213kts
09-Feb-18 13:01 33.693589 -112.070456 41 17055ft 208kts
09-Feb-18 13:02 33.733940 -112.019271 41 18935ft 215kts
09-Feb-18 13:03 33.744575 -111.949218 92 20537ft 234kts
09-Feb-18 13:04 33.738234 -111.871326 93 22203ft 228kts
09-Feb-18 13:05 33.731811 -111.795131 92 23586ft 233kts
09-Feb-18 13:06 33.725251 -111.717048 92 24781ft 237kts
09-Feb-18 13:07 33.718541 -111.637963 92 25880ft 239kts
09-Feb-18 13:08 33.711794 -111.559172 92 26969ft 237kts
09-Feb-18 13:09 33.704595 -111.475004 92 27054ft 268kts
09-Feb-18 13:10 33.696633 -111.383742 92 27051ft 280kts
09-Feb-18 13:11 33.688732 -111.293748 93 27047ft 284kts
09-Feb-18 13:12 33.708690 -111.205985 62 27047ft 276kts
09-Feb-18 13:13 33.738812 -111.122015 62 27169ft 274kts
09-Feb-18 13:14 33.768988 -111.037444 62 27185ft 278kts
09-Feb-18 13:15 33.799282 -110.952029 62 27182ft 278kts
09-Feb-18 13:16 33.829483 -110.866793 62 27182ft 278kts
09-Feb-18 13:16 33.854581 -110.795767 62 27182ft 278kts
09-Feb-18 13:18 33.889671 -110.696206 62 27237ft 277kts
09-Feb-18 13:18 33.914699 -110.625001 62 27237ft 278kts
09-Feb-18 13:19 33.944827 -110.539075 62 27237ft 278kts
09-Feb-18 13:21 33.979856 -110.438887 62 27237ft 279kts
09-Feb-18 13:21 34.004837 -110.367235 62 27237ft 279kts
09-Feb-18 13:23 34.039590 -110.267303 63 27234ft 279kts
09-Feb-18 13:23 34.064484 -110.195488 63 27235ft 279kts
09-Feb-18 13:24 34.094362 -110.109123 63 27234ft 279kts
09-Feb-18 13:25 34.123773 -110.023880 63 27238ft 279kts
09-Feb-18 13:26 34.153611 -109.937150 63 27238ft 280kts
09-Feb-18 13:27 34.183382 -109.850369 63 27239ft 280kts
09-Feb-18 13:28 34.213067 -109.763614 63 27186ft 282kts
09-Feb-18 13:29 34.242944 -109.676034 63 27077ft 283kts
09-Feb-18 13:30 34.273116 -109.587064 61 27080ft 289kts
09-Feb-18 13:31 34.303790 -109.496949 62 27081ft 292kts
09-Feb-18 13:32 34.334371 -109.406266 61 27080ft 292kts
09-Feb-18 13:33 34.364636 -109.316802 62 27074ft 293kts
09-Feb-18 13:34 34.395372 -109.225414 62 27074ft 293kts
09-Feb-18 13:35 34.424720 -109.133294 72 27076ft 297kts
09-Feb-18 13:36 34.441521 -109.035287 73 27075ft 297kts
09-Feb-18 13:37 34.458254 -108.937187 73 27076ft 297kts
09-Feb-18 13:38 34.474954 -108.839010 73 27076ft 298kts
09-Feb-18 13:39 34.491597 -108.740959 74 27082ft 296kts
09-Feb-18 13:40 34.507902 -108.643585 73 27078ft 296kts
09-Feb-18 13:41 34.524309 -108.545870 73 27169ft 294kts
09-Feb-18 13:42 34.540482 -108.448905 73 27241ft 295kts
09-Feb-18 13:43 34.556723 -108.350973 73 27241ft 297kts
09-Feb-18 13:44 34.570933 -108.264857 74 27235ft 296kts
09-Feb-18 13:45 34.586991 -108.167044 74 27236ft 296kts
09-Feb-18 13:46 34.603036 -108.068815 74 27236ft 296kts
09-Feb-18 13:47 34.618988 -107.971361 75 27230ft 294kts
09-Feb-18 13:48 34.635345 -107.869624 74 26143ft 324kts
09-Feb-18 13:49 34.652948 -107.760012 75 24660ft 335kts
09-Feb-18 13:50 34.685499 -107.656526 57 23175ft 330kts
09-Feb-18 13:51 34.728027 -107.557996 57 21690ft 330kts
09-Feb-18 13:52 34.770645 -107.458432 58 19543ft 340kts
09-Feb-18 13:53 34.811680 -107.362148 58 16311ft 308kts
09-Feb-18 13:54 34.849965 -107.272771 61 13405ft 292kts
09-Feb-18 13:56 34.883328 -107.193653 63 13814ft 219kts
09-Feb-18 13:57 34.897215 -107.112467 91 13171ft 296kts
09-Feb-18 13:58 34.895730 -107.008281 91 11190ft 314kts
09-Feb-18 13:59 34.894429 -106.904555 91 9506ft 284kts
09-Feb-18 14:00 34.902030 -106.818562 64 8800ft 235kts
09-Feb-18 14:01 34.927254 -106.752208 66 8341ft 204kts
09-Feb-18 14:02 34.962872 -106.701404 42 7060ft 185kts
09-Feb-18 14:03 34.993983 -106.664425 44 6141ft 135kts
09-Feb-18 14:04 35.018475 -106.635092 44 5445ft 129kts
09-Feb-18 14:05 35.033846 -106.617942 334 5313ft 12kts
09-Feb-18 14:06 35.035727 -106.619096 45 5313ft 3kts
09-Feb-18 14:07 35.035824 -106.618974 45 5313ft 0kts
09-Feb-18 14:08 35.035824 -106.618974 45 5313ft 0kts
09-Feb-18 14:09 35.035824 -106.618974 45 5313ft 0kts
09-Feb-18 14:10 35.035824 -106.618974 45 5313ft 0kts
09-Feb-18 14:11 35.035824 -106.618974 45 5313ft 0kts
09-Feb-18 14:12 35.035824 -106.618974 45 5313ft 0kts
09-Feb-18 14:13 35.035824 -106.618974 45 5313ft 0kts

Navigation Log

Ident Type
Flight plan parsing failed, navigation log unavailable